»·PEaware :: N333BS KTCY-O88

N333BS :: KTCY-O88

FLIGHT INFORMATION

Flight Status: Arrived
Operator: Privately registered:
United States
More flights under this callsign
Pilot: Simon C. (22315)
Aircraft: CESSNA 310
(C310)
More flights by this aircraft type
Origin: KTCY Tracy Mun
United States
Destination: O88 Rio Vista Mun
United States
More flights between these airports :: More routes between these airports
Route: VFR FLY HDG 333 AFTER DEPARTURE
File this flight plan on PilotEdge
Remarks: New to PE
Altitude:
(Current/Filed)
5,500ft
Speed:
(Current/Filed)
160kts
Departed: 01-Jan-19 07:03 AM
Arrived: 01-Jan-19 07:24 AM
Distance/Time
Traveled:
33nm/0:21
Distance/Time
To Go:
Arrived

Flight Plot

Page will automatically refresh every two minutes.

Flight plan parsing failed; only flown route is shown


Map Options




Map Legend


Flown Route
Filed Route
Departure Airport
Arrival Airport
Navaid (VOR, NDB)
Fix

Horizontal Profiles

Position Reports

Time Latitude Longitude Heading Altitude Ground
Speed
01-Jan-19 06:47 37.686942 -121.437485 359 184ft 0kts
01-Jan-19 06:48 37.686942 -121.437485 359 184ft 0kts
01-Jan-19 06:49 37.686942 -121.437485 359 184ft 0kts
01-Jan-19 06:50 37.686942 -121.437485 359 184ft 0kts
01-Jan-19 06:51 37.686942 -121.437485 359 184ft 0kts
01-Jan-19 06:52 37.686942 -121.437485 359 184ft 0kts
01-Jan-19 06:53 37.686942 -121.437485 359 184ft 0kts
01-Jan-19 06:54 37.687053 -121.437643 268 184ft 3kts
01-Jan-19 06:55 37.687338 -121.439543 303 186ft 5kts
01-Jan-19 06:56 37.689475 -121.437027 38 178ft 14kts
01-Jan-19 06:57 37.689780 -121.436696 31 178ft 0kts
01-Jan-19 06:58 37.689780 -121.436696 31 178ft 0kts
01-Jan-19 06:59 37.689780 -121.436696 31 178ft 0kts
01-Jan-19 07:00 37.689780 -121.436696 31 178ft 0kts
01-Jan-19 07:01 37.689780 -121.436696 31 178ft 0kts
01-Jan-19 07:02 37.690391 -121.448823 268 423ft 98kts
01-Jan-19 07:03 37.689883 -121.482366 299 1638ft 102kts
01-Jan-19 07:04 37.716671 -121.494098 344 2818ft 105kts
01-Jan-19 07:05 37.745333 -121.501503 345 3751ft 124kts
01-Jan-19 07:06 37.785022 -121.512796 345 3717ft 157kts
01-Jan-19 07:07 37.827340 -121.525564 345 3707ft 154kts
01-Jan-19 07:08 37.868129 -121.538458 345 3704ft 152kts
01-Jan-19 07:09 37.909189 -121.551982 345 3700ft 152kts
01-Jan-19 07:10 37.949733 -121.565749 345 3699ft 153kts
01-Jan-19 07:11 37.990294 -121.579829 345 3694ft 151kts
01-Jan-19 07:12 38.029878 -121.593959 345 3698ft 147kts
01-Jan-19 07:13 38.068681 -121.608480 346 3691ft 144kts
01-Jan-19 07:14 38.106063 -121.623391 345 3418ft 137kts
01-Jan-19 07:15 38.139544 -121.636952 346 3400ft 121kts
01-Jan-19 07:16 38.168187 -121.649703 345 3396ft 100kts
01-Jan-19 07:17 38.196590 -121.662374 357 2975ft 111kts
01-Jan-19 07:18 38.208273 -121.626881 74 2560ft 128kts
01-Jan-19 07:19 38.189875 -121.594445 196 2251ft 139kts
01-Jan-19 07:20 38.180265 -121.627687 283 1990ft 95kts
01-Jan-19 07:21 38.186361 -121.656989 306 1260ft 82kts
01-Jan-19 07:22 38.194104 -121.684001 285 436ft 84kts
01-Jan-19 07:23 38.194111 -121.705335 245 20ft 22kts
01-Jan-19 07:24 38.193114 -121.704928 86 20ft 17kts
01-Jan-19 07:25 38.192736 -121.701375 359 20ft 0kts
01-Jan-19 07:26 38.192736 -121.701375 359 20ft 0kts
01-Jan-19 07:27 38.192736 -121.701375 359 20ft 0kts
01-Jan-19 07:28 38.192736 -121.701375 359 20ft 0kts
01-Jan-19 07:29 38.192736 -121.701375 359 20ft 0kts
01-Jan-19 07:30 38.192736 -121.701375 359 20ft 0kts
01-Jan-19 07:31 38.192736 -121.701375 359 20ft 0kts
01-Jan-19 07:32 38.192736 -121.701375 359 20ft 0kts
01-Jan-19 07:33 38.192736 -121.701375 359 20ft 0kts
01-Jan-19 07:34 38.192736 -121.701375 359 20ft 0kts
01-Jan-19 07:35 38.192736 -121.701375 359 20ft 0kts
01-Jan-19 07:36 38.192736 -121.701375 359 20ft 0kts
01-Jan-19 07:37 38.192736 -121.701375 359 20ft 0kts
01-Jan-19 07:38 38.192736 -121.701375 359 20ft 0kts

Navigation Log

Ident Type
Flight plan parsing failed, navigation log unavailable